createdAt,value
2018-03-21T00:01:36.257Z,24.30
2018-03-21T00:06:10.308Z,24.97
2018-03-21T00:10:44.289Z,32.83
2018-03-21T00:15:17.719Z,32.90
2018-03-21T00:19:51.724Z,39.50
2018-03-21T00:24:26.523Z,47.30
2018-03-21T00:28:59.906Z,26.70
2018-03-21T00:33:33.314Z,29.63
2018-03-21T00:38:07.537Z,31.23
2018-03-21T00:42:41.702Z,39.87
2018-03-21T00:47:14.988Z,26.30
2018-03-21T00:51:48.308Z,25.03
2018-03-21T00:56:22.212Z,46.37
2018-03-21T01:00:56.253Z,29.77
2018-03-21T01:05:29.819Z,36.43
2018-03-21T01:10:03.267Z,41.97
2018-03-21T01:14:37.314Z,46.47
2018-03-21T01:19:11.525Z,32.33
2018-03-21T01:23:46.431Z,55.20
2018-03-21T01:28:19.922Z,97.80
2018-03-21T01:32:53.313Z,34.37
2018-03-21T01:37:26.600Z,18.83
2018-03-21T01:42:00.764Z,23.23
2018-03-21T01:46:34.241Z,22.13
2018-03-21T01:51:08.852Z,20.03
2018-03-21T01:55:42.402Z,110.47
2018-03-21T02:00:16.530Z,42.97
2018-03-21T02:04:50.528Z,27.90
2018-03-21T02:09:23.794Z,34.90
2018-03-21T02:13:57.626Z,33.53
2018-03-21T02:18:30.896Z,27.13
2018-03-21T02:23:04.967Z,21.47
2018-03-21T02:27:38.369Z,14.40
2018-03-21T02:32:11.843Z,19.80
2018-03-21T02:36:45.890Z,39.57
2018-03-21T02:41:19.280Z,30.00
2018-03-21T02:45:53.334Z,21.60
2018-03-21T02:50:27.597Z,18.27
2018-03-21T02:55:00.923Z,11.73
2018-03-21T02:59:36.716Z,23.17
2018-03-21T03:04:10.046Z,14.07
2018-03-21T03:08:44.158Z,20.63
2018-03-21T03:13:17.799Z,17.90
2018-03-21T03:17:51.201Z,15.50
2018-03-21T03:22:24.591Z,13.80
2018-03-21T03:26:58.652Z,16.33
2018-03-21T03:31:32.291Z,14.00
2018-03-21T03:36:05.613Z,10.80
2018-03-21T03:40:40.389Z,12.93
2018-03-21T03:45:14.449Z,13.00
2018-03-21T03:49:47.769Z,14.07
2018-03-21T03:54:21.235Z,13.40
2018-03-21T03:58:55.289Z,13.83
2018-03-21T04:03:28.542Z,13.03
2018-03-21T04:08:01.818Z,14.17
2018-03-21T04:12:35.818Z,12.27
2018-03-21T04:17:09.137Z,14.30
2018-03-21T04:21:42.751Z,14.80
2018-03-21T04:26:16.754Z,14.37
2018-03-21T04:30:50.796Z,13.43
2018-03-21T04:35:24.201Z,20.97
2018-03-21T04:39:57.496Z,27.73
2018-03-21T04:44:31.553Z,34.93
2018-03-21T04:49:05.158Z,66.27
2018-03-21T04:53:38.413Z,80.53
2018-03-21T04:58:11.702Z,125.97
2018-03-21T05:02:45.000Z,57.60
2018-03-21T05:07:19.062Z,24.17
2018-03-21T05:11:52.509Z,23.87
2018-03-21T05:16:27.222Z,24.57
2018-03-21T05:21:00.582Z,34.10
2018-03-21T05:25:33.994Z,18.33
2018-03-21T05:30:07.303Z,16.27
2018-03-21T05:34:40.847Z,15.93
2018-03-21T05:39:14.236Z,14.40
2018-03-21T05:43:47.979Z,12.57
2018-03-21T05:48:21.292Z,14.17
2018-03-21T05:52:55.463Z,14.80
2018-03-21T05:57:29.732Z,14.07
2018-03-21T06:02:03.031Z,11.17
2018-03-21T06:06:36.452Z,13.80
2018-03-21T06:11:09.747Z,13.17
2018-03-21T06:15:43.166Z,16.13
2018-03-21T06:20:16.437Z,29.43
2018-03-21T06:24:50.673Z,28.93
2018-03-21T06:29:24.729Z,19.60
2018-03-21T06:33:58.521Z,15.47
2018-03-21T06:38:32.687Z,46.17
2018-03-21T06:43:06.083Z,36.97
2018-03-21T06:47:40.072Z,27.40
2018-03-21T06:52:13.326Z,15.73
2018-03-21T06:56:46.806Z,16.90
2018-03-21T07:01:20.932Z,21.10
2018-03-21T07:05:54.990Z,20.87
2018-03-21T07:10:28.278Z,22.00
2018-03-21T07:15:14.150Z,21.10
2018-03-21T07:19:47.441Z,24.87
2018-03-21T07:24:21.509Z,20.67
2018-03-21T07:28:56.358Z,20.33
2018-03-21T07:33:30.481Z,31.90
2018-03-21T07:38:04.646Z,44.10
2018-03-21T07:42:38.740Z,35.07
2018-03-21T07:47:13.176Z,27.40
2018-03-21T07:51:47.234Z,19.13
2018-03-21T07:56:20.609Z,18.23
2018-03-21T08:00:54.662Z,12.60
2018-03-21T08:05:28.051Z,9.50
2018-03-21T08:10:02.093Z,7.93
2018-03-21T08:14:35.382Z,6.13
2018-03-21T08:19:09.543Z,6.80
2018-03-21T08:23:43.168Z,6.70
2018-03-21T08:28:16.542Z,4.83
2018-03-21T08:32:50.671Z,5.80
2018-03-21T08:37:24.800Z,5.70
2018-03-21T08:41:59.277Z,5.57
2018-03-21T08:46:32.577Z,4.77
2018-03-21T08:51:05.984Z,5.10
2018-03-21T08:55:39.441Z,4.57
2018-03-21T09:00:12.704Z,3.97
2018-03-21T09:04:46.194Z,3.20
2018-03-21T09:09:20.286Z,3.17
2018-03-21T09:13:53.944Z,3.50
2018-03-21T09:18:28.275Z,3.40
2018-03-21T09:23:02.498Z,3.53
2018-03-21T09:27:36.552Z,2.70
2018-03-21T09:32:10.041Z,3.10
2018-03-21T09:36:44.167Z,3.67
2018-03-21T09:41:18.214Z,3.30
2018-03-21T09:45:51.485Z,2.80
2018-03-21T09:50:25.537Z,3.27
2018-03-21T09:54:59.170Z,2.80
2018-03-21T09:59:32.438Z,2.97
2018-03-21T10:04:05.701Z,3.20
2018-03-21T10:08:39.173Z,2.90
2018-03-21T10:13:13.301Z,3.33
2018-03-21T10:17:47.335Z,3.00
2018-03-21T10:22:21.491Z,3.30
2018-03-21T10:26:54.796Z,3.33
2018-03-21T10:31:28.096Z,3.60
2018-03-21T10:36:01.589Z,4.50
2018-03-21T10:40:35.760Z,4.50
2018-03-21T10:45:09.724Z,3.23
2018-03-21T10:49:43.874Z,3.30
2018-03-21T10:54:18.834Z,4.60
2018-03-21T10:58:52.882Z,3.62
2018-03-21T11:03:26.146Z,3.03
2018-03-21T11:08:00.302Z,3.30
2018-03-21T11:12:34.534Z,3.22
2018-03-21T11:17:08.138Z,2.80
2018-03-21T11:21:41.698Z,3.12
2018-03-21T11:26:15.559Z,4.93
2018-03-21T11:30:49.589Z,2.75
2018-03-21T11:35:23.625Z,2.40
2018-03-21T11:39:56.927Z,2.60
2018-03-21T11:44:30.966Z,2.63
2018-03-21T11:49:04.238Z,2.53
2018-03-21T11:53:37.570Z,2.77
2018-03-21T11:58:10.920Z,3.05
2018-03-21T12:02:44.192Z,2.30
2018-03-21T12:07:18.315Z,2.72
2018-03-21T12:11:52.356Z,2.42
2018-03-21T12:16:26.205Z,2.60
2018-03-21T12:20:59.505Z,2.30
2018-03-21T12:25:32.814Z,2.60
2018-03-21T12:30:06.195Z,2.45
2018-03-21T12:34:40.355Z,2.67
2018-03-21T12:39:16.624Z,3.53
2018-03-21T12:43:49.950Z,2.40
2018-03-21T12:48:23.550Z,2.30
2018-03-21T12:52:56.829Z,2.30
2018-03-21T12:57:30.880Z,2.30
2018-03-21T13:02:04.163Z,2.12
2018-03-21T13:06:38.186Z,3.10
2018-03-21T13:11:12.355Z,2.80
2018-03-21T13:15:45.636Z,2.70
2018-03-21T13:20:19.728Z,2.23
2018-03-21T13:24:53.002Z,2.90
2018-03-21T13:29:26.380Z,2.33
2018-03-21T13:34:01.330Z,2.27
2018-03-21T13:38:35.360Z,2.67
2018-03-21T13:43:09.730Z,2.53
2018-03-21T13:47:43.099Z,2.20
2018-03-21T13:52:17.225Z,2.20
2018-03-21T13:56:51.272Z,2.23
2018-03-21T14:01:24.573Z,2.40
2018-03-21T14:05:57.907Z,2.20
2018-03-21T14:10:31.286Z,1.83
2018-03-21T14:15:05.352Z,2.23
2018-03-21T14:19:38.644Z,2.30
2018-03-21T14:24:12.028Z,2.20
2018-03-21T14:28:46.073Z,2.27
2018-03-21T14:33:19.363Z,2.13
2018-03-21T14:37:53.520Z,2.00
2018-03-21T14:42:26.778Z,2.17
2018-03-21T14:47:00.216Z,3.60
2018-03-21T14:51:35.145Z,2.53
2018-03-21T14:56:08.570Z,2.17
2018-03-21T15:00:42.698Z,2.80
2018-03-21T15:05:16.835Z,2.63
2018-03-21T15:09:50.867Z,2.60
2018-03-21T15:14:24.125Z,3.40
2018-03-21T15:18:58.078Z,2.87
2018-03-21T15:23:31.426Z,2.50
2018-03-21T15:28:04.693Z,2.40
2018-03-21T15:32:38.832Z,2.83
2018-03-21T15:37:12.882Z,3.53
2018-03-21T15:41:46.147Z,2.73
2018-03-21T15:46:19.416Z,2.50
2018-03-21T15:50:52.704Z,2.80
2018-03-21T15:55:26.094Z,3.03
2018-03-21T16:00:00.152Z,2.47
2018-03-21T16:04:33.984Z,3.27
2018-03-21T16:09:07.355Z,2.67
2018-03-21T16:13:41.481Z,2.83
2018-03-21T16:18:14.758Z,5.60
2018-03-21T16:22:48.330Z,3.10
2018-03-21T16:27:21.592Z,3.43
2018-03-21T16:31:54.871Z,4.23
2018-03-21T16:36:28.177Z,4.33
2018-03-21T16:41:01.550Z,3.47
2018-03-21T16:45:34.870Z,4.50
2018-03-21T16:50:08.959Z,4.20
2018-03-21T16:54:42.288Z,4.20
2018-03-21T16:59:16.314Z,3.80
2018-03-21T17:03:50.336Z,16.23
2018-03-21T17:08:24.366Z,6.50
2018-03-21T17:12:58.499Z,4.23
2018-03-21T17:17:33.218Z,4.27
2018-03-21T17:22:07.161Z,5.50
2018-03-21T17:26:41.826Z,3.97
2018-03-21T17:31:15.135Z,10.73
2018-03-21T17:35:48.524Z,29.77
2018-03-21T17:40:21.864Z,41.50
2018-03-21T17:44:55.743Z,28.73
2018-03-21T17:49:29.984Z,17.87
2018-03-21T17:54:04.114Z,15.63
2018-03-21T17:58:38.276Z,14.83
2018-03-21T18:03:12.557Z,14.63
2018-03-21T18:07:46.630Z,24.57
2018-03-21T18:12:20.602Z,23.97
2018-03-21T18:16:53.958Z,22.63
2018-03-21T18:21:27.585Z,19.47
2018-03-21T18:26:00.900Z,19.30
2018-03-21T18:30:34.210Z,17.33
2018-03-21T18:35:07.820Z,12.90
2018-03-21T18:39:41.385Z,8.13
2018-03-21T18:44:15.454Z,9.77
2018-03-21T18:48:48.748Z,7.00
2018-03-21T18:53:22.409Z,8.83
2018-03-21T18:57:55.680Z,10.53
2018-03-21T19:02:28.974Z,6.63
2018-03-21T19:07:03.209Z,7.87
2018-03-21T19:11:36.612Z,7.83
2018-03-21T19:16:10.840Z,9.37
2018-03-21T19:20:45.501Z,10.93
2018-03-21T19:25:18.872Z,6.93
2018-03-21T19:29:52.410Z,38.27
2018-03-21T19:34:26.062Z,9.33
2018-03-21T19:38:59.404Z,11.07
2018-03-21T19:43:33.487Z,13.17
2018-03-21T19:48:06.790Z,7.93
2018-03-21T19:52:40.054Z,8.00
2018-03-21T19:57:13.553Z,10.30
2018-03-21T20:01:46.831Z,10.03
2018-03-21T20:06:20.748Z,9.60
2018-03-21T20:10:54.062Z,12.27
2018-03-21T20:15:27.978Z,13.90
2018-03-21T20:20:01.402Z,15.80
2018-03-21T20:24:34.778Z,14.50
2018-03-21T20:29:09.163Z,14.03
2018-03-21T20:33:42.552Z,11.37
2018-03-21T20:38:16.447Z,9.17
2018-03-21T20:42:50.511Z,12.07
2018-03-21T20:47:23.807Z,11.20
2018-03-21T20:51:57.077Z,11.57
2018-03-21T20:56:31.222Z,10.30
2018-03-21T21:01:05.374Z,11.93
2018-03-21T21:05:39.218Z,11.83
2018-03-21T21:10:12.686Z,10.27
2018-03-21T21:14:46.746Z,9.47
2018-03-21T21:19:20.050Z,8.20
2018-03-21T21:23:53.432Z,8.23
2018-03-21T21:28:27.478Z,11.73
2018-03-21T21:33:00.799Z,12.70
2018-03-21T21:37:34.109Z,11.07
2018-03-21T21:42:08.104Z,12.13
2018-03-21T21:46:42.496Z,12.93
2018-03-21T21:51:15.788Z,9.57
2018-03-21T21:55:49.187Z,10.60
2018-03-21T22:00:22.441Z,6.50
2018-03-21T22:04:55.873Z,6.50
2018-03-21T22:09:29.926Z,6.40
2018-03-21T22:14:03.347Z,6.67
2018-03-21T22:18:36.726Z,10.40
2018-03-21T22:23:10.754Z,10.67
2018-03-21T22:27:44.780Z,7.70
2018-03-21T22:32:18.904Z,19.53
2018-03-21T22:36:52.956Z,9.60
2018-03-21T22:41:26.970Z,8.20
2018-03-21T22:46:00.233Z,8.67
2018-03-21T22:50:34.276Z,6.60
2018-03-21T22:55:08.420Z,6.20
2018-03-21T22:59:42.582Z,10.20
2018-03-21T23:04:15.886Z,9.10
2018-03-21T23:08:49.198Z,8.93
2018-03-21T23:13:22.819Z,10.90
2018-03-21T23:17:56.302Z,6.53
2018-03-21T23:22:30.355Z,8.30
2018-03-21T23:27:03.650Z,12.30
2018-03-21T23:31:36.916Z,11.07
2018-03-21T23:36:10.259Z,12.77
2018-03-21T23:40:43.588Z,16.10
2018-03-21T23:45:17.073Z,13.50
2018-03-21T23:49:51.128Z,9.13
2018-03-21T23:54:24.432Z,15.37
2018-03-21T23:58:57.820Z,10.03
